This is the latest recevied weather packets stored in our database for station/object EA1EXV-11. If no packets are shown the sender has not sent any weather packets the latest 1 day(s).
| Time | Temp. | Humidity | Pressure | Rain* | Wind** | Luminosity | Snow |
|---|---|---|---|---|---|---|---|
| 1778098829 | 11.11° C | 72% | 1015.5 hPa | - | - | - | - |
| 1778097029 | 11.67° C | 70% | 1015.4 hPa | - | - | - | - |
| 1778090728 | 15° C | 66% | 1015.5 hPa | - | - | - | - |
| 1778088928 | 15.56° C | 65% | 1015.7 hPa | - | - | - | - |
| 1778088028 | 15.56° C | 64% | 1015.7 hPa | - | - | - | - |
| 1778079927 | 20° C | 56% | 1016.2 hPa | - | - | - | - |
| 1778072726 | 17.78° C | 71% | 1016.9 hPa | - | - | - | - |
| 1778071826 | 17.22° C | 73% | 1017 hPa | - | - | - | - |
| 1778070925 | 17.22° C | 73% | 1017 hPa | - | - | - | - |
| 1778065524 | 15.56° C | 80% | 1017.6 hPa | - | - | - | - |
| 1778064624 | 14.44° C | 80% | 1017.6 hPa | - | - | - | - |
| 1778063724 | 13.33° C | 80% | 1017.7 hPa | - | - | - | - |
| 1778062824 | 12.78° C | 81% | 1017.7 hPa | - | - | - | - |
| 1778061924 | 14.44° C | 81% | 1017.5 hPa | - | - | - | - |
| 1778061024 | 14.44° C | 81% | 1017.4 hPa | - | - | - | - |
| 1778057423 | 14.44° C | 84% | 1017.2 hPa | - | - | - | - |
| 1778056523 | 13.89° C | 84% | 1017.2 hPa | - | - | - | - |
| 1778055623 | 13.33° C | 85% | 1017.3 hPa | - | - | - | - |
| 1778054723 | 11.67° C | 85% | 1017.3 hPa | - | - | - | - |
| 1778053823 | 11.67° C | 85% | 1017.2 hPa | - | - | - | - |
| 1778052923 | 11.11° C | 85% | 1017.2 hPa | - | - | - | - |
| 1778052023 | 10.56° C | 85% | 1017.2 hPa | - | - | - | - |
| 1778045722 | 8.89° C | 84% | 1016.8 hPa | - | - | - | - |
| 1778044822 | 8.89° C | 84% | 1016.8 hPa | - | - | - | - |
| 1778043922 | 8.89° C | 84% | 1016.7 hPa | - | - | - | - |
* Rain since midnight (hover to see other rain measurements)
** Current wind speed in m/s (hover to see current wind gust speed)